Time;durP1;ratioP1;P1;durP2;ratioP2;P2;SDS_P1;SDS_P2;PMS_P1;PMS_P2;Temp;Humidity;BMP_temperature;BMP_pressure;BME280_temperature;BME280_humidity;BME280_pressure;Samples;Min_cycle;Max_cycle;Signal;HPM_P1;HPM_P2
2022/12/25 00:00:20;;;;;;;8.15;3.70;;;;;;;1.98;100.00;100247.06;7720615;23;20445;-82
2022/12/25 00:03:22;;;;;;;16.58;5.15;;;;;;;2.00;100.00;100245.31;7718350;23;20023;-83
2022/12/25 00:06:22;;;;;;;9.88;4.18;;;;;;;2.08;100.00;100256.28;7689648;23;20017;-82
2022/12/25 00:09:25;;;;;;;9.38;3.53;;;;;;;2.18;100.00;100262.91;7715104;23;20441;-82
2022/12/25 00:12:29;;;;;;;11.95;3.50;;;;;;;2.21;100.00;100259.41;7739940;23;20052;-82
2022/12/25 00:15:29;;;;;;;14.25;7.32;;;;;;;2.27;100.00;100256.69;7714807;23;20437;-82
2022/12/25 00:18:30;;;;;;;39.97;17.30;;;;;;;2.29;100.00;100256.66;7689375;23;20017;-82
2022/12/25 00:21:33;;;;;;;20.77;11.30;;;;;;;2.38;100.00;100262.41;7714281;23;20092;-82
2022/12/25 00:24:34;;;;;;;8.43;4.45;;;;;;;2.33;100.00;100261.69;7712487;23;20020;-82
2022/12/25 00:27:37;;;;;;;4.90;3.30;;;;;;;2.38;100.00;100277.03;7714273;23;20021;-82
2022/12/25 00:30:40;;;;;;;6.78;3.42;;;;;;;2.25;100.00;100242.16;7714665;23;20023;-83
2022/12/25 00:33:43;;;;;;;5.85;2.35;;;;;;;2.35;100.00;100259.09;7664909;23;20020;-84
2022/12/25 00:36:43;;;;;;;;;;;;;;;2.46;100.00;100277.69;7714717;23;20261;-84
2022/12/25 00:39:47;;;;;;;2.50;1.48;;;;;;;2.48;100.00;100285.41;7717039;23;20391;-84
2022/12/25 00:42:48;;;;;;;8.85;2.60;;;;;;;2.42;100.00;100284.63;7715294;23;20043;-84
2022/12/25 00:45:54;;;;;;;8.13;2.38;;;;;;;2.38;100.00;100290.75;7716983;23;20385;-84
2022/12/25 00:48:58;;;;;;;2.72;2.03;;;;;;;2.36;100.00;100287.34;7689965;23;20013;-84
2022/12/25 00:51:59;;;;;;;1.58;1.42;;;;;;;2.36;100.00;100291.66;7690101;23;20043;-84
2022/12/25 00:55:00;;;;;;;5.93;3.28;;;;;;;2.23;100.00;100309.13;7690567;23;20100;-84
2022/12/25 00:58:01;;;;;;;11.85;3.33;;;;;;;2.21;100.00;100313.47;7690409;23;20380;-83
2022/12/25 01:01:05;;;;;;;6.07;2.65;;;;;;;2.11;100.00;100309.41;7689806;23;20032;-83
2022/12/25 01:04:07;;;;;;;4.55;3.17;;;;;;;2.13;100.00;100316.22;7716716;23;20504;-83
2022/12/25 01:07:08;;;;;;;4.50;2.45;;;;;;;2.01;100.00;100311.34;7690394;23;20071;-82
2022/12/25 01:10:21;;;;;;;3.28;2.55;;;;;;;2.05;100.00;100322.41;7690465;23;20034;-83
2022/12/25 01:13:22;;;;;;;5.72;3.45;;;;;;;1.96;100.00;100332.03;7727631;23;20023;-83
2022/12/25 01:16:23;;;;;;;6.43;3.95;;;;;;;1.79;100.00;100308.34;7715214;23;20023;-84
2022/12/25 01:19:24;;;;;;;12.27;4.50;;;;;;;1.83;100.00;100329.72;7715182;23;20021;-84
2022/12/25 01:22:25;;;;;;;8.20;4.03;;;;;;;1.79;100.00;100328.94;7690350;23;20013;-84
2022/12/25 01:25:26;;;;;;;6.07;3.35;;;;;;;1.80;100.00;100335.81;7690341;23;20346;-84
2022/12/25 01:28:26;;;;;;;5.18;2.80;;;;;;;1.71;100.00;100323.97;7715137;23;20088;-84
2022/12/25 01:31:27;;;;;;;3.40;2.53;;;;;;;1.72;100.00;100329.97;7723677;23;20094;-84
2022/12/25 01:34:28;;;;;;;3.55;2.13;;;;;;;1.70;100.00;100329.97;7690188;23;20660;-83
2022/12/25 01:37:29;;;;;;;3.65;2.42;;;;;;;1.74;100.00;100330.78;7689597;23;20047;-82
2022/12/25 01:40:33;;;;;;;5.93;2.40;;;;;;;1.73;100.00;100329.06;7715686;23;20048;-83
2022/12/25 01:43:33;;;;;;;4.72;2.17;;;;;;;1.78;100.00;100330.69;7688629;23;20017;-82
2022/12/25 01:46:35;;;;;;;6.80;3.00;;;;;;;1.86;100.00;100329.69;7715514;23;20024;-82
2022/12/25 01:49:37;;;;;;;2.85;2.20;;;;;;;1.84;100.00;100332.28;7715301;23;20012;-82
2022/12/25 01:52:38;;;;;;;2.67;2.08;;;;;;;1.92;100.00;100326.97;7715231;23;20111;-82
2022/12/25 01:55:44;;;;;;;4.32;2.47;;;;;;;1.82;100.00;100323.75;7715447;23;20017;-82
2022/12/25 01:58:46;;;;;;;7.45;3.08;;;;;;;1.79;100.00;100331.50;7701735;23;20099;-81
2022/12/25 02:01:47;;;;;;;4.85;2.20;;;;;;;1.74;100.00;100323.91;7691447;23;20499;-82
2022/12/25 02:04:57;;;;;;;2.15;1.63;;;;;;;1.70;100.00;100329.97;7717741;23;20020;-81
2022/12/25 02:08:03;;;;;;;3.85;2.63;;;;;;;1.59;100.00;100325.06;7694558;23;20052;-82
2022/12/25 02:11:04;;;;;;;6.50;2.70;;;;;;;1.52;100.00;100318.31;7719211;23;20023;-82
2022/12/25 02:14:05;;;;;;;8.25;2.45;;;;;;;1.48;100.00;100313.28;7718910;23;20013;-81
2022/12/25 02:17:26;;;;;;;4.50;1.88;;;;;;;1.49;100.00;100315.81;7691528;23;20446;-82
2022/12/25 02:20:44;;;;;;;8.07;2.35;;;;;;;1.32;100.00;100307.56;7728699;23;20020;-82
2022/12/25 02:23:56;;;;;;;3.30;2.03;;;;;;;1.30;100.00;100328.19;7690785;23;20027;-81
2022/12/25 02:27:23;;;;;;;3.17;2.35;;;;;;;1.20;100.00;100342.94;7717475;23;20012;-81
2022/12/25 02:30:25;;;;;;;6.57;3.03;;;;;;;1.16;100.00;100350.72;7693834;23;20020;-80
2022/12/25 02:36:58;;;;;;;1.63;1.35;;;;;;;1.14;100.00;100355.06;7717523;23;20016;-80
2022/12/25 02:40:30;;;;;;;2.22;1.95;;;;;;;1.08;100.00;100350.84;7704218;23;20021;-83
2022/12/25 03:07:34;;;;;;;3.85;3.10;;;;;;;0.77;100.00;100351.38;7730060;23;20012;-79
2022/12/25 03:17:24;;;;;;;2.65;2.40;;;;;;;0.75;100.00;100395.94;7717940;23;20338;-82
2022/12/25 03:27:09;;;;;;;4.60;2.60;;;;;;;0.84;100.00;100393.22;7717842;23;20071;-82
2022/12/25 03:35:21;;;;;;;4.10;2.47;;;;;;;0.75;100.00;100407.06;7716307;23;20013;-79
2022/12/25 04:37:21;;;;;;;1.85;1.45;;;;;;;0.90;100.00;100423.94;7729344;23;20013;-82
2022/12/25 04:40:25;;;;;;;18.48;1.85;;;;;;;0.89;100.00;100437.69;7690375;23;20095;-82
2022/12/25 04:43:26;;;;;;;2.85;1.63;;;;;;;0.86;100.00;100426.59;7690265;23;20628;-82
2022/12/25 04:46:27;;;;;;;4.53;2.60;;;;;;;0.76;100.00;100420.72;7716635;23;20539;-82
2022/12/25 04:49:27;;;;;;;3.80;1.70;;;;;;;0.95;100.00;100422.16;7715639;23;20087;-82
2022/12/25 04:52:28;;;;;;;5.00;2.13;;;;;;;0.69;100.00;100404.56;7690703;23;20333;-82
2022/12/25 04:55:31;;;;;;;3.78;1.95;;;;;;;0.73;100.00;100415.66;7716283;23;20020;-80
2022/12/25 04:58:32;;;;;;;2.90;1.67;;;;;;;0.72;100.00;100411.38;7717069;23;20012;-82
2022/12/25 05:01:34;;;;;;;3.72;2.25;;;;;;;0.71;100.00;100414.84;7716307;23;20017;-82
2022/12/25 05:04:35;;;;;;;1.92;1.52;;;;;;;0.63;100.00;100412.38;7717162;23;20322;-82
2022/12/25 05:07:36;;;;;;;6.50;3.22;;;;;;;0.64;100.00;100416.66;7715420;23;20021;-79
2022/12/25 05:10:41;;;;;;;5.97;3.22;;;;;;;0.62;100.00;100413.25;7714007;23;20062;-79
2022/12/25 05:13:42;;;;;;;6.05;2.03;;;;;;;0.57;100.00;100425.28;7726254;23;20508;-79
2022/12/25 05:16:45;;;;;;;3.90;2.63;;;;;;;0.53;100.00;100429.63;7689502;23;20019;-83
2022/12/25 05:19:46;;;;;;;4.68;2.50;;;;;;;0.48;100.00;100435.72;7715118;23;20021;-82
2022/12/25 05:22:47;;;;;;;2.80;2.30;;;;;;;0.44;100.00;100434.06;7715252;23;20463;-82
2022/12/25 05:25:48;;;;;;;3.67;2.13;;;;;;;0.36;100.00;100424.72;7716603;23;20551;-82
2022/12/25 05:28:49;;;;;;;12.10;2.83;;;;;;;0.35;100.00;100424.72;7715729;23;20023;-79
2022/12/25 05:31:50;;;;;;;3.80;3.38;;;;;;;0.41;100.00;100442.63;7716558;23;20089;-79
2022/12/25 05:34:50;;;;;;;4.97;3.35;;;;;;;0.44;100.00;100458.00;7715057;23;20020;-79
2022/12/25 05:37:51;;;;;;;12.13;3.25;;;;;;;0.51;100.00;100456.19;7715590;23;20024;-79
2022/12/25 05:40:52;;;;;;;7.80;2.15;;;;;;;0.62;100.00;100466.31;7714129;23;20388;-79
2022/12/25 05:43:53;;;;;;;2.08;1.63;;;;;;;0.69;100.00;100463.66;7715665;23;20066;-79
2022/12/25 05:46:53;;;;;;;3.53;2.03;;;;;;;0.68;100.00;100466.22;7716305;23;20016;-82
2022/12/25 05:49:54;;;;;;;3.22;1.98;;;;;;;0.74;100.00;100481.56;7714685;23;20088;-82
2022/12/25 05:52:57;;;;;;;3.25;1.75;;;;;;;0.69;100.00;100484.19;7714626;23;20017;-79
2022/12/25 05:56:04;;;;;;;4.97;2.33;;;;;;;0.66;100.00;100493.66;7715233;23;20073;-79
2022/12/25 05:59:05;;;;;;;2.17;1.83;;;;;;;0.57;100.00;100492.91;7715272;23;20021;-79
2022/12/25 06:02:06;;;;;;;2.50;2.08;;;;;;;0.60;100.00;100486.91;7715612;23;20020;-78
2022/12/25 06:05:07;;;;;;;5.10;2.15;;;;;;;0.56;100.00;100492.94;7714849;23;20020;-78
2022/12/25 06:08:07;;;;;;;3.15;2.33;;;;;;;0.52;100.00;100504.97;7718265;23;20118;-79
2022/12/25 06:11:11;;;;;;;4.57;1.73;;;;;;;0.46;100.00;100488.78;7713833;23;20021;-79
2022/12/25 06:14:13;;;;;;;1.63;1.52;;;;;;;0.51;100.00;100503.25;7721107;23;20092;-79
2022/12/25 06:17:14;;;;;;;1.45;1.02;;;;;;;0.51;100.00;100512.69;7715156;23;20096;-78
2022/12/25 06:20:15;;;;;;;5.07;2.15;;;;;;;0.55;100.00;100522.03;7714929;23;20096;-79
2022/12/25 06:23:15;;;;;;;3.80;2.00;;;;;;;0.52;100.00;100520.38;7714113;23;20019;-79
2022/12/25 06:26:18;;;;;;;2.05;1.65;;;;;;;0.46;100.00;100515.31;7713493;23;20013;-78
2022/12/25 06:29:19;;;;;;;3.20;2.13;;;;;;;0.47;100.00;100527.28;7688240;23;20043;-78
2022/12/25 06:32:22;;;;;;;3.15;2.28;;;;;;;0.61;100.00;100532.25;7712630;23;20454;-79
2022/12/25 06:35:23;;;;;;;2.33;2.10;;;;;;;0.58;100.00;100534.88;7713969;23;20016;-79
2022/12/25 06:38:26;;;;;;;3.20;2.05;;;;;;;0.71;100.00;100545.84;7713013;23;20511;-79
2022/12/25 06:41:31;;;;;;;3.72;2.25;;;;;;;0.69;100.00;100542.44;7715532;23;20500;-79
2022/12/25 06:44:32;;;;;;;4.65;1.98;;;;;;;0.64;100.00;100541.63;7713683;23;20027;-79
2022/12/25 06:47:33;;;;;;;1.98;1.77;;;;;;;0.71;100.00;100551.81;7716159;23;20040;-83
2022/12/25 06:50:42;;;;;;;3.75;2.75;;;;;;;0.69;100.00;100548.41;7716521;23;20423;-83
2022/12/25 06:53:46;;;;;;;4.10;2.72;;;;;;;0.66;100.00;100545.91;7730193;23;20017;-79
2022/12/25 06:56:47;;;;;;;4.22;2.72;;;;;;;0.70;100.00;100550.13;7717094;23;20172;-80
2022/12/25 06:59:48;;;;;;;9.90;2.65;;;;;;;0.70;100.00;100562.09;7715894;23;20100;-80
2022/12/25 07:02:49;;;;;;;5.00;2.28;;;;;;;0.65;100.00;100539.03;7716015;23;20484;-83
2022/12/25 07:05:50;;;;;;;2.88;2.10;;;;;;;0.84;100.00;100575.63;7715934;23;20013;-83
2022/12/25 07:08:51;;;;;;;4.88;1.85;;;;;;;0.90;100.00;100562.69;7715755;23;20164;-83
2022/12/25 07:11:52;;;;;;;11.20;2.85;;;;;;;0.99;100.00;100587.44;7716163;23;20016;-81
2022/12/25 07:14:56;;;;;;;14.82;2.70;;;;;;;1.00;100.00;100579.69;7715751;23;20040;-80
2022/12/25 07:17:59;;;;;;;3.60;2.35;;;;;;;1.11;100.00;100586.41;7717149;23;20323;-83
2022/12/25 07:21:13;;;;;;;4.85;3.08;;;;;;;1.24;100.00;100597.41;7690990;23;20016;-83
2022/12/25 07:24:21;;;;;;;2.58;2.00;;;;;;;1.17;100.00;100594.03;7729971;23;20023;-83
2022/12/25 07:27:22;;;;;;;5.82;3.00;;;;;;;1.24;100.00;100589.69;7715631;23;20016;-83
2022/12/25 07:30:22;;;;;;;4.88;2.22;;;;;;;1.29;100.00;100599.00;7717030;23;20019;-81
2022/12/25 07:33:23;;;;;;;2.88;1.83;;;;;;;1.38;100.00;100603.16;7716820;23;20473;-80
2022/12/25 07:36:24;;;;;;;3.63;2.63;;;;;;;1.50;100.00;100620.97;7690322;23;20669;-80
2022/12/25 07:39:27;;;;;;;6.43;2.63;;;;;;;1.55;100.00;100614.06;7716934;23;20449;-81
2022/12/25 07:42:28;;;;;;;8.57;4.63;;;;;;;1.61;100.00;100602.84;7690216;23;20016;-81
2022/12/25 07:45:29;;;;;;;10.75;6.18;;;;;;;1.69;100.00;100618.13;7690321;23;20035;-81
2022/12/25 07:48:32;;;;;;;4.10;3.05;;;;;;;1.82;100.00;100629.97;7716575;23;20127;-80
2022/12/25 07:51:35;;;;;;;6.55;3.35;;;;;;;1.81;100.00;100623.97;7690045;23;20346;-80
2022/12/25 07:54:36;;;;;;;5.50;3.22;;;;;;;1.93;100.00;100635.75;7715909;23;20345;-80
2022/12/25 07:57:37;;;;;;;11.57;5.22;;;;;;;2.03;100.00;100639.03;7712490;23;20020;-80
2022/12/25 08:00:38;;;;;;;4.35;3.17;;;;;;;2.13;100.00;100637.19;7712947;23;20461;-81
2022/12/25 08:03:39;;;;;;;5.10;3.97;;;;;;;2.17;100.00;100629.38;7689307;23;20017;-81
2022/12/25 08:06:40;;;;;;;9.23;4.25;;;;;;;2.28;100.00;100642.06;7688510;23;20016;-81
2022/12/25 08:09:40;;;;;;;8.00;4.47;;;;;;;2.33;100.00;100647.97;7714537;23;20139;-80
2022/12/25 08:12:41;;;;;;;10.57;5.65;;;;;;;2.49;100.00;100671.75;7687746;23;20456;-80
2022/12/25 08:15:42;;;;;;;5.07;3.67;;;;;;;2.60;100.00;100658.66;7712526;23;20099;-81
2022/12/25 08:18:43;;;;;;;6.28;4.07;;;;;;;2.70;100.00;100638.72;7712711;23;20501;-80
2022/12/25 08:21:44;;;;;;;18.10;5.55;;;;;;;2.55;100.00;100661.34;7686948;23;20018;-81
2022/12/25 08:24:44;;;;;;;7.43;5.88;;;;;;;2.57;100.00;100666.44;7714354;23;20035;-80
2022/12/25 08:27:45;;;;;;;13.13;4.72;;;;;;;2.57;100.00;100675.03;7687314;23;20017;-84
2022/12/25 08:30:46;;;;;;;10.48;4.28;;;;;;;2.60;100.00;100684.44;7715782;23;20020;-85
2022/12/25 08:33:49;;;;;;;14.32;4.60;;;;;;;2.58;100.00;100679.31;7689204;23;20096;-85
2022/12/25 08:36:50;;;;;;;9.80;4.25;;;;;;;2.55;100.00;100673.34;7714393;23;20422;-84
2022/12/25 08:39:51;;;;;;;7.90;5.18;;;;;;;2.53;100.00;100685.41;7714330;23;20096;-85
2022/12/25 08:42:55;;;;;;;13.98;6.75;;;;;;;2.50;100.00;100670.84;7664139;23;20017;-85
2022/12/25 08:45:56;;;;;;;15.10;7.43;;;;;;;2.55;100.00;100694.84;7714978;23;20016;-85
2022/12/25 08:48:57;;;;;;;13.25;8.10;;;;;;;2.46;100.00;100694.97;7690042;23;20025;-85
2022/12/25 08:51:58;;;;;;;13.65;8.18;;;;;;;2.55;100.00;100697.41;7690499;23;20012;-85
2022/12/25 08:54:59;;;;;;;20.55;10.02;;;;;;;2.51;100.00;100695.75;7716063;23;20040;-85
2022/12/25 08:57:59;;;;;;;23.83;15.30;;;;;;;2.59;100.00;100695.59;7716613;23;20017;-85
2022/12/25 09:01:00;;;;;;;20.00;12.20;;;;;;;2.69;100.00;100696.28;7690314;23;20044;-85
2022/12/25 09:04:04;;;;;;;13.63;7.20;;;;;;;2.59;100.00;100700.75;7665056;23;20028;-86
2022/12/25 09:07:04;;;;;;;19.13;11.05;;;;;;;2.69;100.00;100704.03;7714584;23;20504;-86
2022/12/25 09:10:08;;;;;;;13.25;5.32;;;;;;;2.82;100.00;100711.50;7664838;23;20023;-86
2022/12/25 09:13:11;;;;;;;14.23;8.55;;;;;;;2.90;100.00;100710.50;7714887;23;20016;-86
2022/12/25 09:16:16;;;;;;;15.07;6.85;;;;;;;2.92;100.00;100717.31;7690076;23;20017;-85
2022/12/25 09:19:17;;;;;;;8.55;6.13;;;;;;;2.98;100.00;100695.75;7717882;23;20024;-85
2022/12/25 09:22:18;;;;;;;6.00;4.03;;;;;;;3.12;100.00;100726.41;7663845;23;20094;-85
2022/12/25 09:25:18;;;;;;;6.28;4.50;;;;;;;3.07;100.00;100721.38;7663377;23;20152;-86
2022/12/25 09:28:22;;;;;;;6.85;4.93;;;;;;;3.10;100.00;100729.03;7691598;23;20027;-86
2022/12/25 09:31:23;;;;;;;7.10;4.80;;;;;;;3.02;100.00;100718.84;7688509;23;20441;-85
2022/12/25 09:34:24;;;;;;;4.85;2.83;;;;;;;3.07;100.00;100700.72;7716268;23;20035;-85
2022/12/25 09:37:25;;;;;;;4.05;2.92;;;;;;;3.07;100.00;100716.22;7717930;23;20437;-85
2022/12/25 09:40:29;;;;;;;5.20;3.38;;;;;;;3.13;100.00;100705.78;7713998;23;20382;-85
2022/12/25 09:43:38;;;;;;;7.82;3.58;;;;;;;3.17;100.00;100709.97;7689306;23;20326;-85
2022/12/25 09:46:49;;;;;;;18.52;8.60;;;;;;;3.32;100.00;100701.09;7689887;23;20027;-82
2022/12/25 09:50:07;;;;;;;31.58;12.23;;;;;;;3.38;100.00;100716.44;7712021;23;20394;-82
2022/12/25 09:53:32;;;;;;;29.50;13.45;;;;;;;3.31;100.00;100714.00;7690755;23;20496;-82
2022/12/25 09:56:33;;;;;;;30.17;9.35;;;;;;;3.31;100.00;100725.16;7687213;23;20323;-87
2022/12/25 09:59:34;;;;;;;7.95;4.40;;;;;;;3.39;100.00;100722.44;7689072;23;20021;-87
2022/12/25 10:02:46;;;;;;;11.15;5.22;;;;;;;3.36;100.00;100727.66;7714014;23;20074;-86
2022/12/25 10:06:00;;;;;;;6.95;4.35;;;;;;;3.30;100.00;100730.38;7698647;23;20323;-85
2022/12/25 10:09:10;;;;;;;20.50;7.93;;;;;;;3.46;100.00;100728.31;7697450;23;20373;-86
2022/12/25 10:12:44;;;;;;;18.92;4.45;;;;;;;3.69;100.00;100728.69;7664011;23;20486;-85
2022/12/25 10:15:48;;;;;;;9.85;4.88;;;;;;;3.89;100.00;100720.50;7714770;23;20013;-85
2022/12/25 10:18:54;;;;;;;14.73;7.32;;;;;;;3.97;100.00;100717.72;7687297;23;20082;-79
2022/12/25 10:22:01;;;;;;;15.38;4.78;;;;;;;4.09;100.00;100714.84;7690715;23;20095;-83
2022/12/25 10:25:02;;;;;;;28.48;12.85;;;;;;;3.92;100.00;100706.66;7690120;23;20027;-83
2022/12/25 10:28:13;;;;;;;14.30;7.38;;;;;;;3.90;100.00;100716.19;7690211;23;20020;-83
2022/12/25 10:31:24;;;;;;;7.40;4.70;;;;;;;4.06;100.00;100725.28;7689745;23;20385;-82
2022/12/25 10:34:26;;;;;;;3.85;2.85;;;;;;;4.02;100.00;100718.47;7690129;23;20021;-82
2022/12/25 10:37:27;;;;;;;7.72;6.10;;;;;;;4.00;100.00;100725.41;7715768;23;20148;-82
2022/12/25 10:40:59;;;;;;;5.55;3.83;;;;;;;4.04;100.00;100720.13;7714435;23;20318;-82
2022/12/25 10:44:10;;;;;;;13.40;3.60;;;;;;;4.06;100.00;100717.53;7643377;23;20024;-83
2022/12/25 10:47:11;;;;;;;28.80;5.03;;;;;;;3.98;100.00;100716.84;7712470;23;20029;-82
2022/12/25 10:50:21;;;;;;;13.25;5.22;;;;;;;4.09;100.00;100745.00;7716468;23;20437;-79
2022/12/25 10:53:25;;;;;;;17.35;5.72;;;;;;;4.00;100.00;100730.56;7712767;23;20205;-79
2022/12/25 10:56:26;;;;;;;18.67;3.67;;;;;;;4.20;100.00;100737.84;7711870;23;20023;-83
2022/12/25 10:59:29;;;;;;;17.77;3.85;;;;;;;4.22;100.00;100734.34;7715967;23;20016;-83
2022/12/25 11:02:37;;;;;;;17.02;3.33;;;;;;;4.23;100.00;100736.03;7690680;23;20047;-83
2022/12/25 11:05:38;;;;;;;5.95;4.07;;;;;;;4.32;100.00;100740.13;7688238;23;20028;-83
2022/12/25 11:08:41;;;;;;;18.77;9.13;;;;;;;4.20;100.00;100732.66;7687976;23;20028;-83
2022/12/25 11:11:48;;;;;;;7.38;5.32;;;;;;;4.20;100.00;100730.09;7714803;23;20673;-83
2022/12/25 11:14:58;;;;;;;8.90;4.30;;;;;;;4.23;100.00;100735.19;7663249;23;20017;-83
2022/12/25 11:17:59;;;;;;;6.03;3.83;;;;;;;4.20;100.00;100749.03;7688431;23;20044;-83
2022/12/25 11:21:13;;;;;;;9.52;3.88;;;;;;;4.17;100.00;100746.53;7689202;23;20021;-83
2022/12/25 11:24:21;;;;;;;17.85;3.78;;;;;;;4.17;100.00;100746.53;7689703;23;20353;-83
2022/12/25 11:27:27;;;;;;;11.15;3.72;;;;;;;4.29;100.00;100765.22;7713243;23;20008;-83
2022/12/25 11:30:31;;;;;;;7.28;3.30;;;;;;;4.38;100.00;100767.56;7712920;23;20016;-78
2022/12/25 11:33:38;;;;;;;7.40;3.92;;;;;;;4.47;100.00;100774.25;7708699;23;20051;-78
2022/12/25 11:36:43;;;;;;;5.72;3.67;;;;;;;4.57;100.00;100765.38;7712882;23;20021;-83
2022/12/25 11:39:45;;;;;;;5.80;3.40;;;;;;;4.61;100.00;100767.88;7712998;23;20052;-83
2022/12/25 11:42:53;;;;;;;9.07;3.83;;;;;;;4.61;100.00;100769.59;7713754;23;20066;-83
2022/12/25 11:46:12;;;;;;;18.98;5.90;;;;;;;4.66;100.00;100765.16;7689618;23;20021;-83
2022/12/25 11:49:18;;;;;;;9.13;4.20;;;;;;;4.71;100.00;100765.03;7714185;23;20012;-79
2022/12/25 11:52:21;;;;;;;37.15;5.45;;;;;;;4.64;100.00;100756.59;7710937;23;20020;-83
2022/12/25 11:55:22;;;;;;;;;;;;;;;4.67;100.00;100764.25;7717404;23;20016;-79
2022/12/25 11:58:30;;;;;;;11.57;6.70;;;;;;;4.73;100.00;100751.19;7715837;23;19923;-79
2022/12/25 12:02:00;;;;;;;17.80;5.57;;;;;;;4.71;100.00;100752.09;7716155;23;20032;-79
2022/12/25 12:05:26;;;;;;;7.85;4.30;;;;;;;4.61;100.00;100772.16;7713047;23;20017;-83
2022/12/25 12:08:31;;;;;;;9.23;5.13;;;;;;;4.67;100.00;100768.59;7712486;23;20418;-83
2022/12/25 12:11:52;;;;;;;9.45;6.35;;;;;;;4.81;100.00;100767.34;7715141;23;20070;-83
2022/12/25 12:15:05;;;;;;;5.10;3.35;;;;;;;4.83;100.00;100759.56;7712811;23;20016;-83
2022/12/25 12:18:18;;;;;;;9.32;4.78;;;;;;;4.79;100.00;100752.75;7686720;23;20082;-83
2022/12/25 12:21:28;;;;;;;8.25;4.25;;;;;;;4.76;100.00;100752.84;7716459;23;20016;-78
2022/12/25 12:24:39;;;;;;;7.82;4.13;;;;;;;4.87;100.00;100753.41;7715813;23;20013;-79
2022/12/25 12:27:40;;;;;;;12.80;5.28;;;;;;;4.78;100.00;100743.31;7714041;23;20016;-79
2022/12/25 12:30:41;;;;;;;14.63;7.97;;;;;;;4.87;100.00;100744.81;7687276;23;20039;-78
2022/12/25 12:33:56;;;;;;;25.27;6.95;;;;;;;4.63;100.00;100763.50;7714041;23;20447;-78
2022/12/25 12:37:17;;;;;;;10.32;3.72;;;;;;;4.58;100.00;100751.56;7714404;23;20012;-79
2022/12/25 12:40:34;;;;;;;9.05;4.57;;;;;;;4.52;100.00;100751.72;7716652;23;20078;-79
2022/12/25 12:43:39;;;;;;;7.63;5.18;;;;;;;4.46;100.00;100746.72;7685152;23;20017;-83
2022/12/25 12:46:53;;;;;;;16.58;4.88;;;;;;;4.56;100.00;100756.78;7687459;23;20040;-83
2022/12/25 12:49:59;;;;;;;21.75;7.45;;;;;;;4.69;100.00;100748.72;7712573;23;20104;-83
2022/12/25 12:53:16;;;;;;;16.45;8.65;;;;;;;4.79;100.00;100763.94;7686599;23;20031;-83
2022/12/25 12:56:19;;;;;;;10.70;5.70;;;;;;;4.55;100.00;100756.81;7661824;23;20028;-83
2022/12/25 12:59:20;;;;;;;27.58;7.53;;;;;;;4.46;100.00;100744.97;7716416;23;20024;-83
2022/12/25 13:02:42;;;;;;;14.27;6.78;;;;;;;4.56;100.00;100753.34;7715046;23;20017;-83
2022/12/25 13:05:53;;;;;;;18.15;4.75;;;;;;;4.26;100.00;100750.63;7687432;23;20024;-83
2022/12/25 13:09:21;;;;;;;14.88;6.20;;;;;;;4.23;100.00;100750.69;7687101;23;20589;-83
2022/12/25 13:12:22;;;;;;;17.15;5.00;;;;;;;4.03;100.00;100751.16;7661770;23;20461;-83
2022/12/25 13:15:27;;;;;;;13.20;4.13;;;;;;;4.11;100.00;100754.41;7714774;23;20039;-83
2022/12/25 13:18:29;;;;;;;17.85;4.35;;;;;;;4.03;100.00;100754.56;7689399;23;20021;-82
2022/12/25 13:21:32;;;;;;;6.00;4.10;;;;;;;4.01;100.00;100752.91;7686580;23;20410;-82
2022/12/25 13:24:34;;;;;;;;;;;;;;;4.17;100.00;100766.34;7687597;23;20021;-83
2022/12/25 13:27:35;;;;;;;27.98;5.18;;;;;;;4.19;100.00;100768.00;7662221;23;19916;-83
2022/12/25 13:30:35;;;;;;;12.63;4.72;;;;;;;4.32;100.00;100765.97;7688822;23;20023;-83
2022/12/25 13:33:39;;;;;;;22.27;5.35;;;;;;;4.33;100.00;100780.59;7711072;23;20457;-83
2022/12/25 13:36:40;;;;;;;;;;;;;;;4.19;100.00;100777.50;7711302;23;20013;-83
2022/12/25 13:39:52;;;;;;;6.30;4.38;;;;;;;4.04;100.00;100786.44;7712786;23;19969;-83
2022/12/25 13:42:59;;;;;;;8.20;4.60;;;;;;;4.16;100.00;100798.22;7706767;23;20020;-83
2022/12/25 13:46:00;;;;;;;10.30;3.85;;;;;;;4.05;100.00;100795.88;7707737;23;20017;-83
2022/12/25 13:49:01;;;;;;;11.15;5.53;;;;;;;4.01;100.00;100800.25;7711209;23;20486;-83
2022/12/25 13:52:10;;;;;;;11.45;5.82;;;;;;;4.05;100.00;100803.63;7686103;23;20039;-83
2022/12/25 13:55:23;;;;;;;7.32;4.88;;;;;;;4.12;100.00;100799.16;7713575;23;20013;-82
2022/12/25 13:58:30;;;;;;;23.20;4.90;;;;;;;4.25;100.00;100792.84;7713202;23;20452;-82
2022/12/25 14:01:33;;;;;;;10.23;5.30;;;;;;;4.10;100.00;100781.13;7712846;23;20400;-83
2022/12/25 14:04:43;;;;;;;15.85;5.00;;;;;;;4.30;100.00;100779.81;7710027;23;20044;-82
2022/12/25 14:07:50;;;;;;;8.95;3.83;;;;;;;4.31;100.00;100799.63;7713315;23;20017;-82
2022/12/25 14:10:52;;;;;;;6.50;4.82;;;;;;;4.29;100.00;100791.88;7710174;23;20012;-82
2022/12/25 14:14:00;;;;;;;7.20;5.30;;;;;;;4.27;100.00;100770.41;7712059;23;20317;-82
2022/12/25 14:17:01;;;;;;;5.57;3.78;;;;;;;4.25;100.00;100767.00;7710183;23;20016;-82
2022/12/25 14:20:02;;;;;;;6.93;3.95;;;;;;;4.35;100.00;100771.06;7712788;23;20095;-81
2022/12/25 14:23:04;;;;;;;8.32;4.85;;;;;;;4.36;100.00;100777.09;7712613;23;20095;-82
2022/12/25 14:26:05;;;;;;;7.93;3.13;;;;;;;4.36;100.00;100796.00;7712222;23;20017;-82
2022/12/25 14:29:10;;;;;;;6.68;3.80;;;;;;;4.17;100.00;100793.00;7714520;23;20013;-77
2022/12/25 14:32:16;;;;;;;6.68;4.10;;;;;;;4.30;100.00;100808.22;7714981;23;20080;-77
2022/12/25 14:35:18;;;;;;;3.58;2.83;;;;;;;4.26;100.00;100815.19;7685307;23;20013;-77
2022/12/25 14:38:26;;;;;;;15.15;4.40;;;;;;;4.39;100.00;100828.72;7714690;23;20023;-77
2022/12/25 14:41:36;;;;;;;7.93;4.60;;;;;;;4.31;100.00;100834.03;7714158;23;20017;-78
2022/12/25 14:44:39;;;;;;;15.48;5.93;;;;;;;4.36;100.00;100814.09;7687585;23;20091;-77
2022/12/25 14:47:50;;;;;;;;;;;;;;;4.47;100.00;100813.88;7713022;23;20016;-82
2022/12/25 14:50:54;;;;;;;11.48;6.90;;;;;;;4.58;100.00;100826.53;7712368;23;19916;-82
2022/12/25 14:53:57;;;;;;;10.40;6.88;;;;;;;4.60;100.00;100835.09;7712581;23;20020;-82
2022/12/25 14:56:58;;;;;;;14.80;8.05;;;;;;;4.55;100.00;100834.34;7685611;23;20040;-82
2022/12/25 15:00:04;;;;;;;23.95;12.07;;;;;;;4.55;100.00;100829.19;7712441;23;20501;-82
2022/12/25 15:03:21;;;;;;;30.00;14.75;;;;;;;4.59;100.00;100833.38;7712195;23;20017;-77
2022/12/25 15:06:23;;;;;;;34.80;15.98;;;;;;;4.54;100.00;100830.91;7689635;23;20319;-82
2022/12/25 15:09:25;;;;;;;37.60;18.50;;;;;;;4.56;100.00;100838.66;7714560;23;20068;-77
2022/12/25 15:12:26;;;;;;;44.30;14.43;;;;;;;4.58;100.00;100834.28;7715602;23;20040;-77
2022/12/25 15:15:28;;;;;;;28.40;10.20;;;;;;;4.67;100.00;100839.22;7690580;23;20120;-82
2022/12/25 15:18:33;;;;;;;12.00;6.82;;;;;;;4.68;100.00;100830.59;7690419;23;20658;-77
2022/12/25 15:21:38;;;;;;;18.83;9.20;;;;;;;4.71;100.00;100843.44;7687516;23;20019;-77
2022/12/25 15:24:38;;;;;;;15.60;8.68;;;;;;;4.68;100.00;100832.34;7687907;23;20438;-77
2022/12/25 15:27:40;;;;;;;15.48;9.57;;;;;;;4.67;100.00;100828.88;7716072;23;20044;-78
2022/12/25 15:30:41;;;;;;;23.02;10.93;;;;;;;4.74;100.00;100832.19;7714430;23;20012;-78
2022/12/25 15:33:42;;;;;;;21.15;6.43;;;;;;;4.71;100.00;100819.31;7689275;23;20087;-78
2022/12/25 15:36:43;;;;;;;14.27;8.43;;;;;;;4.75;100.00;100826.13;7714864;23;20433;-82
2022/12/25 15:39:45;;;;;;;18.10;7.72;;;;;;;4.88;100.00;100834.41;7713404;23;20517;-77
2022/12/25 15:42:47;;;;;;;15.25;9.43;;;;;;;4.82;100.00;100831.13;7714483;23;20549;-77
2022/12/25 15:45:48;;;;;;;13.45;6.95;;;;;;;4.81;100.00;100821.63;7712661;23;20039;-77
2022/12/25 15:48:49;;;;;;;20.65;7.72;;;;;;;4.92;100.00;100820.53;7685788;23;20088;-82
2022/12/25 15:51:49;;;;;;;24.48;5.85;;;;;;;4.90;100.00;100817.13;7712089;23;20206;-77
2022/12/25 15:54:52;;;;;;;18.40;6.28;;;;;;;4.90;100.00;100827.47;7659798;23;20313;-78
2022/12/25 15:57:53;;;;;;;30.30;6.03;;;;;;;4.84;100.00;100828.50;7711609;23;20353;-77